This is the latest recevied weather packets stored in our database for station/object NUUKSIO. If no packets are shown the sender has not sent any weather packets the latest 10 day(s).
| Time | Temp. | Humidity | Pressure | Rain* | Wind** | Luminosity | Snow |
|---|---|---|---|---|---|---|---|
| 1777153591 | 0° C | 87% | 994.5 hPa | 0 mm | - | - | - |
| 1777152391 | 0° C | 90% | 994.3 hPa | 0 mm | - | - | - |
| 1777151191 | 0° C | 91% | 994 hPa | 0 mm | - | - | - |
| 1777149991 | 0° C | 92% | 993.7 hPa | 0 mm | - | - | - |
| 1777148790 | 0.56° C | 92% | 993.6 hPa | 0 mm | - | - | - |
| 1777147590 | 0.56° C | 84% | 993.4 hPa | 0 mm | - | - | - |
| 1777146390 | 0.56° C | 83% | 993.2 hPa | 0 mm | - | - | - |
| 1777145190 | 1.11° C | 84% | 992.8 hPa | 0 mm | - | - | - |
| 1777143990 | 1.11° C | 86% | 992.6 hPa | 0 mm | - | - | - |
| 1777142790 | 1.11° C | 86% | 992.2 hPa | 0 mm | - | - | - |
| 1777141590 | 1.11° C | 89% | 991.9 hPa | 0 mm | - | - | - |
| 1777140390 | 1.11° C | 92% | 991.5 hPa | 0 mm | - | - | - |
| 1777139190 | 1.67° C | 85% | 991.4 hPa | 0 mm | - | - | - |
| 1777137990 | 2.78° C | 75% | 991 hPa | 0 mm | - | - | - |
| 1777136790 | 3.33° C | 69% | 990.8 hPa | 0 mm | - | - | - |
| 1777135590 | 3.89° C | 69% | 990.7 hPa | 0 mm | - | - | - |
| 1777134390 | 4.44° C | 66% | 990.4 hPa | 0 mm | - | - | - |
| 1777133190 | 5.56° C | 67% | 990.1 hPa | 0 mm | - | - | - |
| 1777131990 | 6.11° C | 61% | 990 hPa | 0 mm | - | - | - |
| 1777130790 | 6.67° C | 65% | 989.8 hPa | 0 mm | - | - | - |
| 1777129590 | 8.33° C | 60% | 989.4 hPa | 0 mm | - | - | - |
| 1777128389 | 7.78° C | 67% | 989.5 hPa | 0 mm | - | - | - |
| 1777127190 | 7.78° C | 72% | 989.6 hPa | 0 mm | - | - | - |
| 1777125989 | 6.67° C | 72% | 989.8 hPa | 0 mm | - | - | - |
| 1777124789 | 6.67° C | 71% | 990 hPa | 0.25 mm | - | - | - |
* Rain latest hour (hover to see other rain measurements)
** Current wind speed in m/s (hover to see current wind gust speed)